sensor_id;sensor_type;location;lat;lon;timestamp;pressure;altitude;pressure_sealevel;temperature;humidity
72721;BME280;60835;50.974;10.322;2023-06-22T00:00:00;98302.38;;;18.93;100.00
72721;BME280;60835;50.974;10.322;2023-06-22T00:02:26;98299.88;;;19.05;100.00
72721;BME280;60835;50.974;10.322;2023-06-22T00:04:53;98290.19;;;18.97;100.00
72721;BME280;60835;50.974;10.322;2023-06-22T00:07:19;98293.72;;;18.91;100.00
72721;BME280;60835;50.974;10.322;2023-06-22T00:09:46;98287.97;;;18.81;100.00
72721;BME280;60835;50.974;10.322;2023-06-22T00:12:12;98276.47;;;18.61;100.00
72721;BME280;60835;50.974;10.322;2023-06-22T00:14:39;98257.91;;;18.59;100.00
72721;BME280;60835;50.974;10.322;2023-06-22T00:17:05;98250.50;;;18.61;100.00
72721;BME280;60835;50.974;10.322;2023-06-22T00:19:32;98245.34;;;18.53;100.00
72721;BME280;60835;50.974;10.322;2023-06-22T00:22:02;98243.88;;;18.64;100.00
72721;BME280;60835;50.974;10.322;2023-06-22T00:24:30;98258.72;;;18.73;100.00
72721;BME280;60835;50.974;10.322;2023-06-22T00:26:56;98257.44;;;18.89;100.00
72721;BME280;60835;50.974;10.322;2023-06-22T00:29:23;98251.19;;;19.01;100.00
72721;BME280;60835;50.974;10.322;2023-06-22T00:31:51;98273.22;;;19.16;100.00
72721;BME280;60835;50.974;10.322;2023-06-22T00:34:18;98279.66;;;19.02;100.00
72721;BME280;60835;50.974;10.322;2023-06-22T00:36:45;98267.28;;;19.08;100.00
72721;BME280;60835;50.974;10.322;2023-06-22T00:39:12;98286.22;;;19.06;100.00
72721;BME280;60835;50.974;10.322;2023-06-22T00:41:38;98286.31;;;18.80;100.00
72721;BME280;60835;50.974;10.322;2023-06-22T00:44:05;98269.44;;;18.73;100.00
72721;BME280;60835;50.974;10.322;2023-06-22T00:46:33;98265.97;;;18.66;100.00
72721;BME280;60835;50.974;10.322;2023-06-22T00:48:59;98250.50;;;18.61;100.00
72721;BME280;60835;50.974;10.322;2023-06-22T00:51:26;98246.41;;;18.52;100.00
72721;BME280;60835;50.974;10.322;2023-06-22T00:53:52;98250.09;;;18.45;100.00
72721;BME280;60835;50.974;10.322;2023-06-22T00:56:20;98231.97;;;18.27;100.00
72721;BME280;60835;50.974;10.322;2023-06-22T00:58:51;98207.69;;;18.09;100.00
72721;BME280;60835;50.974;10.322;2023-06-22T01:01:19;98188.31;;;18.20;100.00
72721;BME280;60835;50.974;10.322;2023-06-22T01:03:51;98170.22;;;18.15;100.00
72721;BME280;60835;50.974;10.322;2023-06-22T01:06:27;98170.22;;;18.02;100.00
72721;BME280;60835;50.974;10.322;2023-06-22T01:09:06;98155.41;;;17.93;100.00
72721;BME280;60835;50.974;10.322;2023-06-22T01:11:45;98142.03;;;17.93;100.00
72721;BME280;60835;50.974;10.322;2023-06-22T01:14:17;98136.06;;;17.91;100.00
72721;BME280;60835;50.974;10.322;2023-06-22T01:16:47;98117.13;;;17.86;100.00
72721;BME280;60835;50.974;10.322;2023-06-22T01:21:58;98091.19;;;17.93;100.00
72721;BME280;60835;50.974;10.322;2023-06-22T01:29:56;98051.03;;;17.93;100.00
72721;BME280;60835;50.974;10.322;2023-06-22T01:32:31;98026.53;;;17.96;100.00
72721;BME280;60835;50.974;10.322;2023-06-22T01:35:01;98013.75;;;17.98;100.00
72721;BME280;60835;50.974;10.322;2023-06-22T01:37:28;98005.56;;;17.80;100.00
72721;BME280;60835;50.974;10.322;2023-06-22T01:39:56;97991.13;;;17.94;100.00
72721;BME280;60835;50.974;10.322;2023-06-22T01:42:24;97958.66;;;17.84;100.00
72721;BME280;60835;50.974;10.322;2023-06-22T01:44:53;97965.63;;;17.85;100.00
72721;BME280;60835;50.974;10.322;2023-06-22T01:47:23;97980.84;;;17.91;100.00
72721;BME280;60835;50.974;10.322;2023-06-22T01:49:50;97972.56;;;17.99;100.00
72721;BME280;60835;50.974;10.322;2023-06-22T01:52:18;97950.09;;;18.13;100.00
72721;BME280;60835;50.974;10.322;2023-06-22T01:54:47;97977.38;;;18.29;100.00
72721;BME280;60835;50.974;10.322;2023-06-22T01:57:14;98008.69;;;18.35;100.00
72721;BME280;60835;50.974;10.322;2023-06-22T02:00:03;98042.00;;;18.39;100.00
72721;BME280;60835;50.974;10.322;2023-06-22T02:02:39;98062.22;;;18.35;100.00
72721;BME280;60835;50.974;10.322;2023-06-22T02:05:09;98067.38;;;18.30;100.00
72721;BME280;60835;50.974;10.322;2023-06-22T02:07:44;98077.25;;;18.36;100.00
72721;BME280;60835;50.974;10.322;2023-06-22T02:10:16;98093.50;;;18.41;100.00
72721;BME280;60835;50.974;10.322;2023-06-22T02:12:45;98100.09;;;18.45;100.00
72721;BME280;60835;50.974;10.322;2023-06-22T02:15:13;98100.94;;;18.45;100.00
72721;BME280;60835;50.974;10.322;2023-06-22T02:17:40;98124.00;;;18.53;100.00
72721;BME280;60835;50.974;10.322;2023-06-22T02:20:14;98130.50;;;18.70;100.00
72721;BME280;60835;50.974;10.322;2023-06-22T02:22:41;98150.31;;;18.69;100.00
72721;BME280;60835;50.974;10.322;2023-06-22T02:25:08;98172.53;;;18.76;100.00
72721;BME280;60835;50.974;10.322;2023-06-22T02:27:34;98184.69;;;18.72;100.00
72721;BME280;60835;50.974;10.322;2023-06-22T02:30:01;98194.41;;;18.73;100.00
72721;BME280;60835;50.974;10.322;2023-06-22T02:32:27;98203.03;;;18.75;100.00
72721;BME280;60835;50.974;10.322;2023-06-22T02:34:54;98211.31;;;18.73;100.00
72721;BME280;60835;50.974;10.322;2023-06-22T02:37:20;98207.84;;;18.60;100.00
72721;BME280;60835;50.974;10.322;2023-06-22T02:39:51;98205.38;;;18.52;100.00
72721;BME280;60835;50.974;10.322;2023-06-22T02:42:17;98190.50;;;18.69;100.00
72721;BME280;60835;50.974;10.322;2023-06-22T02:44:47;98193.63;;;18.66;100.00
72721;BME280;60835;50.974;10.322;2023-06-22T02:47:13;98175.47;;;18.68;100.00
72721;BME280;60835;50.974;10.322;2023-06-22T02:49:40;98189.03;;;18.73;100.00
72721;BME280;60835;50.974;10.322;2023-06-22T02:52:07;98191.06;;;18.84;100.00
72721;BME280;60835;50.974;10.322;2023-06-22T02:54:33;98211.28;;;18.80;100.00
72721;BME280;60835;50.974;10.322;2023-06-22T02:57:00;98208.66;;;18.60;100.00
72721;BME280;60835;50.974;10.322;2023-06-22T02:59:29;98210.75;;;18.45;100.00
72721;BME280;60835;50.974;10.322;2023-06-22T03:01:58;98205.16;;;18.47;100.00
72721;BME280;60835;50.974;10.322;2023-06-22T03:04:25;98210.16;;;18.50;100.00
72721;BME280;60835;50.974;10.322;2023-06-22T03:06:51;98191.06;;;18.84;100.00
72721;BME280;60835;50.974;10.322;2023-06-22T03:09:18;98220.00;;;18.69;100.00
72721;BME280;60835;50.974;10.322;2023-06-22T03:11:44;98214.19;;;18.72;100.00
72721;BME280;60835;50.974;10.322;2023-06-22T03:14:11;98219.75;;;18.77;100.00
72721;BME280;60835;50.974;10.322;2023-06-22T03:16:37;98206.38;;;18.77;100.00
72721;BME280;60835;50.974;10.322;2023-06-22T03:19:04;98188.56;;;18.89;100.00
72721;BME280;60835;50.974;10.322;2023-06-22T03:21:30;98185.06;;;18.89;100.00
72721;BME280;60835;50.974;10.322;2023-06-22T03:23:58;98134.59;;;18.79;100.00
72721;BME280;60835;50.974;10.322;2023-06-22T03:26:24;98059.75;;;18.77;100.00
72721;BME280;60835;50.974;10.322;2023-06-22T03:28:53;98043.91;;;18.76;100.00
72721;BME280;60835;50.974;10.322;2023-06-22T03:31:20;98031.09;;;18.78;100.00
72721;BME280;60835;50.974;10.322;2023-06-22T03:33:51;97998.03;;;18.91;100.00
72721;BME280;60835;50.974;10.322;2023-06-22T03:36:18;97970.34;;;18.97;100.00
72721;BME280;60835;50.974;10.322;2023-06-22T03:38:49;97991.75;;;18.78;100.00
72721;BME280;60835;50.974;10.322;2023-06-22T03:41:16;97971.72;;;18.81;100.00
72721;BME280;60835;50.974;10.322;2023-06-22T03:43:43;97949.41;;;18.87;100.00
72721;BME280;60835;50.974;10.322;2023-06-22T03:46:10;97948.97;;;18.90;100.00
72721;BME280;60835;50.974;10.322;2023-06-22T03:48:37;97946.28;;;18.65;100.00
72721;BME280;60835;50.974;10.322;2023-06-22T03:51:04;97934.75;;;18.65;100.00
72721;BME280;60835;50.974;10.322;2023-06-22T03:53:31;97915.38;;;18.63;100.00
72721;BME280;60835;50.974;10.322;2023-06-22T03:55:57;97896.44;;;18.82;100.00
72721;BME280;60835;50.974;10.322;2023-06-22T03:58:24;97914.13;;;18.65;100.00
72721;BME280;60835;50.974;10.322;2023-06-22T04:00:52;97911.22;;;18.67;100.00
72721;BME280;60835;50.974;10.322;2023-06-22T04:03:19;97901.44;;;18.54;100.00
72721;BME280;60835;50.974;10.322;2023-06-22T04:05:47;97869.13;;;18.43;100.00
72721;BME280;60835;50.974;10.322;2023-06-22T04:08:15;97843.84;;;18.39;100.00
72721;BME280;60835;50.974;10.322;2023-06-22T04:10:43;97837.72;;;18.32;100.00
72721;BME280;60835;50.974;10.322;2023-06-22T04:13:09;97826.91;;;18.45;100.00
72721;BME280;60835;50.974;10.322;2023-06-22T04:15:36;97843.84;;;18.39;100.00
72721;BME280;60835;50.974;10.322;2023-06-22T04:18:02;97795.72;;;18.25;100.00
72721;BME280;60835;50.974;10.322;2023-06-22T04:20:31;97773.22;;;18.33;100.00
72721;BME280;60835;50.974;10.322;2023-06-22T04:22:58;97719.38;;;18.41;100.00
72721;BME280;60835;50.974;10.322;2023-06-22T04:25:25;97712.59;;;18.39;100.00
72721;BME280;60835;50.974;10.322;2023-06-22T04:27:51;97712.00;;;18.37;100.00
72721;BME280;60835;50.974;10.322;2023-06-22T04:30:18;97716.03;;;18.46;100.00
72721;BME280;60835;50.974;10.322;2023-06-22T04:32:44;97728.69;;;18.39;100.00
72721;BME280;60835;50.974;10.322;2023-06-22T04:35:11;97728.97;;;18.55;100.00
72721;BME280;60835;50.974;10.322;2023-06-22T04:37:38;97731.50;;;18.68;100.00
72721;BME280;60835;50.974;10.322;2023-06-22T04:40:06;97736.63;;;18.88;100.00
72721;BME280;60835;50.974;10.322;2023-06-22T04:42:35;97765.81;;;18.96;100.00
72721;BME280;60835;50.974;10.322;2023-06-22T04:45:03;97769.25;;;19.21;100.00
72721;BME280;60835;50.974;10.322;2023-06-22T04:47:30;97800.75;;;19.26;100.00
72721;BME280;60835;50.974;10.322;2023-06-22T04:49:57;97822.59;;;19.11;100.00
72721;BME280;60835;50.974;10.322;2023-06-22T04:52:24;97808.78;;;19.26;100.00
72721;BME280;60835;50.974;10.322;2023-06-22T04:54:51;97794.50;;;19.14;100.00
72721;BME280;60835;50.974;10.322;2023-06-22T04:57:22;97832.03;;;19.32;100.00
72721;BME280;60835;50.974;10.322;2023-06-22T05:00:00;97836.56;;;19.31;100.00
72721;BME280;60835;50.974;10.322;2023-06-22T05:02:40;97838.97;;;19.58;100.00
72721;BME280;60835;50.974;10.322;2023-06-22T05:05:08;97846.88;;;19.53;100.00
72721;BME280;60835;50.974;10.322;2023-06-22T05:07:36;97859.53;;;19.64;100.00
72721;BME280;60835;50.974;10.322;2023-06-22T05:10:03;97854.09;;;19.34;100.00
72721;BME280;60835;50.974;10.322;2023-06-22T05:12:30;97870.16;;;19.34;100.00
72721;BME280;60835;50.974;10.322;2023-06-22T05:14:56;97874.00;;;19.63;100.00
72721;BME280;60835;50.974;10.322;2023-06-22T05:17:24;97888.78;;;19.54;100.00
72721;BME280;60835;50.974;10.322;2023-06-22T05:19:50;97881.38;;;19.97;100.00
72721;BME280;60835;50.974;10.322;2023-06-22T05:22:17;97916.59;;;19.89;100.00
72721;BME280;60835;50.974;10.322;2023-06-22T05:24:44;97934.25;;;20.15;100.00
72721;BME280;60835;50.974;10.322;2023-06-22T05:27:11;97959.56;;;20.25;100.00
72721;BME280;60835;50.974;10.322;2023-06-22T05:29:37;97979.22;;;20.19;100.00
72721;BME280;60835;50.974;10.322;2023-06-22T05:32:04;97981.47;;;19.86;100.00
72721;BME280;60835;50.974;10.322;2023-06-22T05:34:35;97962.25;;;19.53;100.00
72721;BME280;60835;50.974;10.322;2023-06-22T05:37:02;97939.75;;;19.54;100.00
72721;BME280;60835;50.974;10.322;2023-06-22T05:39:29;97940.03;;;19.64;100.00
72721;BME280;60835;50.974;10.322;2023-06-22T05:41:55;97938.78;;;19.66;100.00
72721;BME280;60835;50.974;10.322;2023-06-22T05:44:22;97936.50;;;19.99;100.00
72721;BME280;60835;50.974;10.322;2023-06-22T05:46:48;97953.13;;;20.08;100.00
72721;BME280;60835;50.974;10.322;2023-06-22T05:49:15;97990.88;;;20.13;100.00
72721;BME280;60835;50.974;10.322;2023-06-22T05:51:42;98006.09;;;20.01;100.00
72721;BME280;60835;50.974;10.322;2023-06-22T05:54:09;98021.31;;;19.89;100.00
72721;BME280;60835;50.974;10.322;2023-06-22T05:56:36;98022.66;;;20.16;100.00
72721;BME280;60835;50.974;10.322;2023-06-22T05:59:04;98064.88;;;20.09;100.00
72721;BME280;60835;50.974;10.322;2023-06-22T06:01:30;98051.75;;;20.37;100.00
72721;BME280;60835;50.974;10.322;2023-06-22T06:04:03;98087.47;;;21.04;100.00
72721;BME280;60835;50.974;10.322;2023-06-22T06:06:30;98142.66;;;20.58;100.00
72721;BME280;60835;50.974;10.322;2023-06-22T06:08:57;98131.16;;;20.70;100.00
72721;BME280;60835;50.974;10.322;2023-06-22T06:11:23;98126.03;;;20.98;100.00
72721;BME280;60835;50.974;10.322;2023-06-22T06:13:50;98129.50;;;21.46;100.00
72721;BME280;60835;50.974;10.322;2023-06-22T06:16:17;98191.53;;;21.51;100.00
72721;BME280;60835;50.974;10.322;2023-06-22T06:18:44;98197.69;;;21.81;100.00
72721;BME280;60835;50.974;10.322;2023-06-22T06:21:10;98222.81;;;22.17;100.00
72721;BME280;60835;50.974;10.322;2023-06-22T06:23:36;98257.28;;;22.38;100.00
72721;BME280;60835;50.974;10.322;2023-06-22T06:26:03;98245.47;;;22.74;100.00
72721;BME280;60835;50.974;10.322;2023-06-22T06:28:33;98234.81;;;22.67;100.00
72721;BME280;60835;50.974;10.322;2023-06-22T06:31:00;98259.63;;;22.46;100.00
72721;BME280;60835;50.974;10.322;2023-06-22T06:33:26;98281.50;;;23.71;100.00
72721;BME280;60835;50.974;10.322;2023-06-22T06:35:53;98301.31;;;23.48;100.00
72721;BME280;60835;50.974;10.322;2023-06-22T06:38:22;98326.47;;;23.65;100.00
72721;BME280;60835;50.974;10.322;2023-06-22T06:40:48;98318.19;;;23.83;100.00
72721;BME280;60835;50.974;10.322;2023-06-22T06:43:15;98328.66;;;23.28;100.00
72721;BME280;60835;50.974;10.322;2023-06-22T06:45:42;98313.16;;;24.48;100.00
72721;BME280;60835;50.974;10.322;2023-06-22T06:48:08;98336.88;;;23.33;100.00
72721;BME280;60835;50.974;10.322;2023-06-22T06:50:36;98296.03;;;23.41;100.00
72721;BME280;60835;50.974;10.322;2023-06-22T06:53:02;98327.25;;;24.83;100.00
72721;BME280;60835;50.974;10.322;2023-06-22T06:55:29;98330.66;;;23.33;100.00
72721;BME280;60835;50.974;10.322;2023-06-22T06:57:59;98316.13;;;24.80;100.00
72721;BME280;60835;50.974;10.322;2023-06-22T07:00:26;98372.88;;;24.30;100.00
72721;BME280;60835;50.974;10.322;2023-06-22T07:02:53;98339.28;;;25.48;100.00
72721;BME280;60835;50.974;10.322;2023-06-22T07:05:22;98351.25;;;24.47;100.00
72721;BME280;60835;50.974;10.322;2023-06-22T07:07:50;98366.34;;;25.48;100.00
72721;BME280;60835;50.974;10.322;2023-06-22T07:10:16;98377.66;;;24.73;100.00
72721;BME280;60835;50.974;10.322;2023-06-22T07:12:43;98327.00;;;26.37;100.00
72721;BME280;60835;50.974;10.322;2023-06-22T07:15:10;98321.59;;;26.42;100.00
72721;BME280;60835;50.974;10.322;2023-06-22T07:17:38;98220.00;;;27.11;100.00
72721;BME280;60835;50.974;10.322;2023-06-22T07:20:07;98228.50;;;27.30;100.00
72721;BME280;60835;50.974;10.322;2023-06-22T07:22:41;98268.16;;;25.84;100.00
72721;BME280;60835;50.974;10.322;2023-06-22T07:25:09;98184.75;;;27.22;100.00
72721;BME280;60835;50.974;10.322;2023-06-22T07:27:37;98228.47;;;25.99;100.00
72721;BME280;60835;50.974;10.322;2023-06-22T07:30:04;98280.03;;;25.34;100.00
72721;BME280;60835;50.974;10.322;2023-06-22T07:32:31;98141.16;;;28.04;100.00
72721;BME280;60835;50.974;10.322;2023-06-22T07:34:58;98045.38;;;28.12;100.00
72721;BME280;60835;50.974;10.322;2023-06-22T07:37:24;98142.22;;;28.03;100.00
72721;BME280;60835;50.974;10.322;2023-06-22T07:39:53;98246.94;;;28.35;100.00
72721;BME280;60835;50.974;10.322;2023-06-22T07:42:25;98421.44;;;28.64;100.00
72721;BME280;60835;50.974;10.322;2023-06-22T07:44:53;98640.69;;;28.97;100.00
72721;BME280;60835;50.974;10.322;2023-06-22T07:47:20;98809.75;;;29.94;100.00
72721;BME280;60835;50.974;10.322;2023-06-22T07:49:46;98862.09;;;29.86;100.00
72721;BME280;60835;50.974;10.322;2023-06-22T07:52:13;98909.03;;;29.05;100.00
72721;BME280;60835;50.974;10.322;2023-06-22T07:54:39;98860.63;;;28.75;100.00
72721;BME280;60835;50.974;10.322;2023-06-22T07:57:06;98707.31;;;28.01;100.00
72721;BME280;60835;50.974;10.322;2023-06-22T07:59:32;98825.13;;;29.48;100.00
72721;BME280;60835;50.974;10.322;2023-06-22T08:02:00;98845.09;;;29.69;100.00
72721;BME280;60835;50.974;10.322;2023-06-22T08:04:28;98908.47;;;29.03;100.00
72721;BME280;60835;50.974;10.322;2023-06-22T08:06:55;98907.88;;;28.90;100.00
72721;BME280;60835;50.974;10.322;2023-06-22T08:09:22;98985.56;;;30.34;100.00
72721;BME280;60835;50.974;10.322;2023-06-22T08:11:48;98999.31;;;30.74;100.00
72721;BME280;60835;50.974;10.322;2023-06-22T08:14:15;98947.19;;;29.88;100.00
72721;BME280;60835;50.974;10.322;2023-06-22T08:16:42;98951.88;;;29.98;100.00
72721;BME280;60835;50.974;10.322;2023-06-22T08:19:08;98986.28;;;31.26;100.00
72721;BME280;60835;50.974;10.322;2023-06-22T08:21:35;99003.19;;;30.93;100.00
72721;BME280;60835;50.974;10.322;2023-06-22T08:24:02;98993.94;;;30.94;100.00
72721;BME280;60835;50.974;10.322;2023-06-22T08:26:29;98966.31;;;29.93;100.00
72721;BME280;60835;50.974;10.322;2023-06-22T08:28:55;98984.03;;;30.68;100.00
72721;BME280;60835;50.974;10.322;2023-06-22T08:31:22;99022.91;;;31.20;100.00
72721;BME280;60835;50.974;10.322;2023-06-22T08:33:49;99017.41;;;31.25;100.00
72721;BME280;60835;50.974;10.322;2023-06-22T08:36:15;99028.53;;;32.10;100.00
72721;BME280;60835;50.974;10.322;2023-06-22T08:38:42;99042.56;;;31.17;100.00
72721;BME280;60835;50.974;10.322;2023-06-22T08:41:09;99027.47;;;30.74;100.00
72721;BME280;60835;50.974;10.322;2023-06-22T08:43:35;99028.81;;;30.72;100.00
72721;BME280;60835;50.974;10.322;2023-06-22T08:46:02;99019.59;;;31.39;100.00
72721;BME280;60835;50.974;10.322;2023-06-22T08:48:29;99021.00;;;31.46;100.00
72721;BME280;60835;50.974;10.322;2023-06-22T08:50:55;99041.25;;;32.44;100.00
72721;BME280;60835;50.974;10.322;2023-06-22T08:53:22;99044.16;;;31.89;100.00
72721;BME280;60835;50.974;10.322;2023-06-22T08:55:49;99009.22;;;31.10;100.00
72721;BME280;60835;50.974;10.322;2023-06-22T08:58:17;99013.59;;;31.01;100.00
72721;BME280;60835;50.974;10.322;2023-06-22T09:00:44;99023.44;;;31.63;100.00
72721;BME280;60835;50.974;10.322;2023-06-22T09:03:11;98972.44;;;30.26;100.00
72721;BME280;60835;50.974;10.322;2023-06-22T09:05:38;98998.81;;;31.38;100.00
72721;BME280;60835;50.974;10.322;2023-06-22T09:08:05;99013.59;;;31.31;100.00
72721;BME280;60835;50.974;10.322;2023-06-22T09:10:32;99031.31;;;31.84;100.00
72721;BME280;60835;50.974;10.322;2023-06-22T09:12:59;99014.97;;;31.54;100.00
72721;BME280;60835;50.974;10.322;2023-06-22T09:15:25;99019.59;;;31.44;100.00
72721;BME280;60835;50.974;10.322;2023-06-22T09:17:52;99036.34;;;33.29;100.00
72721;BME280;60835;50.974;10.322;2023-06-22T09:20:20;99004.25;;;31.78;100.00
72721;BME280;60835;50.974;10.322;2023-06-22T09:22:47;99013.81;;;32.55;100.00
72721;BME280;60835;50.974;10.322;2023-06-22T09:25:14;99021.81;;;32.90;100.00
72721;BME280;60835;50.974;10.322;2023-06-22T09:27:40;99016.03;;;32.47;100.00
72721;BME280;60835;50.974;10.322;2023-06-22T09:30:07;98978.59;;;30.88;100.00
72721;BME280;60835;50.974;10.322;2023-06-22T09:32:34;99023.53;;;32.81;100.00
72721;BME280;60835;50.974;10.322;2023-06-22T09:35:04;99001.16;;;32.10;100.00
72721;BME280;60835;50.974;10.322;2023-06-22T09:37:32;98996.84;;;32.47;100.00
72721;BME280;60835;50.974;10.322;2023-06-22T09:39:58;99010.09;;;32.35;100.00
72721;BME280;60835;50.974;10.322;2023-06-22T09:42:25;98977.44;;;31.75;100.00
72721;BME280;60835;50.974;10.322;2023-06-22T09:44:51;98999.41;;;32.29;100.00
72721;BME280;60835;50.974;10.322;2023-06-22T09:47:18;99006.28;;;34.00;100.00
72721;BME280;60835;50.974;10.322;2023-06-22T09:49:44;99006.78;;;33.21;100.00
72721;BME280;60835;50.974;10.322;2023-06-22T09:52:14;98994.53;;;32.75;100.00
72721;BME280;60835;50.974;10.322;2023-06-22T09:54:40;98986.94;;;32.62;100.00
72721;BME280;60835;50.974;10.322;2023-06-22T09:57:07;98994.28;;;33.39;100.00
72721;BME280;60835;50.974;10.322;2023-06-22T09:59:33;99007.91;;;35.23;100.00
72721;BME280;60835;50.974;10.322;2023-06-22T10:02:00;99006.69;;;34.36;100.00
72721;BME280;60835;50.974;10.322;2023-06-22T10:04:27;99015.34;;;34.85;100.00
72721;BME280;60835;50.974;10.322;2023-06-22T10:06:54;99017.56;;;33.99;100.00
72721;BME280;60835;50.974;10.322;2023-06-22T10:09:21;99013.84;;;34.74;100.00
72721;BME280;60835;50.974;10.322;2023-06-22T10:11:48;99014.41;;;33.87;100.00
72721;BME280;60835;50.974;10.322;2023-06-22T10:14:14;99031.03;;;33.72;100.00
72721;BME280;60835;50.974;10.322;2023-06-22T10:16:41;99015.34;;;34.24;100.00
72721;BME280;60835;50.974;10.322;2023-06-22T10:19:08;99010.16;;;34.65;100.00
72721;BME280;60835;50.974;10.322;2023-06-22T10:21:34;99020.50;;;34.73;100.00
72721;BME280;60835;50.974;10.322;2023-06-22T10:24:01;99025.88;;;35.94;100.00
72721;BME280;60835;50.974;10.322;2023-06-22T10:26:33;99009.16;;;32.99;100.00
72721;BME280;60835;50.974;10.322;2023-06-22T10:29:00;99020.03;;;34.24;100.00
72721;BME280;60835;50.974;10.322;2023-06-22T10:31:42;99010.34;;;34.08;100.00
72721;BME280;60835;50.974;10.322;2023-06-22T10:34:08;99010.75;;;34.20;100.00
72721;BME280;60835;50.974;10.322;2023-06-22T10:36:35;98990.53;;;31.83;100.00
72721;BME280;60835;50.974;10.322;2023-06-22T10:39:01;98982.91;;;31.75;100.00
72721;BME280;60835;50.974;10.322;2023-06-22T10:41:29;98979.47;;;33.68;100.00
72721;BME280;60835;50.974;10.322;2023-06-22T10:43:56;98947.19;;;31.06;100.00
72721;BME280;60835;50.974;10.322;2023-06-22T10:46:26;98945.03;;;32.07;100.00
72721;BME280;60835;50.974;10.322;2023-06-22T10:48:54;98969.47;;;33.25;100.00
72721;BME280;60835;50.974;10.322;2023-06-22T10:51:22;98960.44;;;32.86;100.00
72721;BME280;60835;50.974;10.322;2023-06-22T10:53:48;98962.13;;;32.43;100.00
72721;BME280;60835;50.974;10.322;2023-06-22T10:56:15;98967.44;;;33.02;100.00
72721;BME280;60835;50.974;10.322;2023-06-22T10:58:42;98953.94;;;33.68;100.00
72721;BME280;60835;50.974;10.322;2023-06-22T11:01:09;98981.13;;;33.69;100.00
72721;BME280;60835;50.974;10.322;2023-06-22T11:03:55;98938.09;;;32.74;100.00
72721;BME280;60835;50.974;10.322;2023-06-22T11:06:22;98953.66;;;33.17;100.00
72721;BME280;60835;50.974;10.322;2023-06-22T11:08:48;98947.50;;;32.58;100.00
72721;BME280;60835;50.974;10.322;2023-06-22T11:11:32;98920.97;;;32.04;100.00
72721;BME280;60835;50.974;10.322;2023-06-22T11:13:59;98953.50;;;33.32;100.00
72721;BME280;60835;50.974;10.322;2023-06-22T11:16:26;98949.72;;;33.57;100.00
72721;BME280;60835;50.974;10.322;2023-06-22T11:18:52;98911.94;;;32.53;100.00
72721;BME280;60835;50.974;10.322;2023-06-22T11:21:19;98945.34;;;34.22;100.00
72721;BME280;60835;50.974;10.322;2023-06-22T11:23:45;98936.94;;;33.90;100.00
72721;BME280;60835;50.974;10.322;2023-06-22T11:26:12;98891.69;;;30.90;100.00
72721;BME280;60835;50.974;10.322;2023-06-22T11:28:38;98902.88;;;32.91;100.00
72721;BME280;60835;50.974;10.322;2023-06-22T11:31:05;98922.81;;;32.63;100.00
72721;BME280;60835;50.974;10.322;2023-06-22T11:33:50;98914.75;;;33.67;100.00
72721;BME280;60835;50.974;10.322;2023-06-22T11:36:19;98903.91;;;33.52;100.00
72721;BME280;60835;50.974;10.322;2023-06-22T11:38:46;98898.19;;;32.91;100.00
72721;BME280;60835;50.974;10.322;2023-06-22T11:41:12;98903.47;;;33.17;100.00
72721;BME280;60835;50.974;10.322;2023-06-22T11:43:39;98891.72;;;34.06;100.00
72721;BME280;60835;50.974;10.322;2023-06-22T11:46:06;98913.81;;;34.38;100.00
72721;BME280;60835;50.974;10.322;2023-06-22T11:48:32;98902.56;;;35.04;100.00
72721;BME280;60835;50.974;10.322;2023-06-22T11:50:59;98902.91;;;34.70;100.00
72721;BME280;60835;50.974;10.322;2023-06-22T11:53:26;98890.34;;;34.64;100.00
72721;BME280;60835;50.974;10.322;2023-06-22T11:55:53;98891.34;;;35.01;100.00
72721;BME280;60835;50.974;10.322;2023-06-22T11:58:22;98881.50;;;33.45;100.00
72721;BME280;60835;50.974;10.322;2023-06-22T12:00:49;98865.16;;;32.00;100.00
72721;BME280;60835;50.974;10.322;2023-06-22T12:03:18;98843.81;;;32.75;100.00
72721;BME280;60835;50.974;10.322;2023-06-22T12:05:46;98847.28;;;32.85;100.00
72721;BME280;60835;50.974;10.322;2023-06-22T12:08:13;98857.59;;;34.49;100.00
72721;BME280;60835;50.974;10.322;2023-06-22T12:10:40;98857.03;;;34.34;100.00
72721;BME280;60835;50.974;10.322;2023-06-22T12:13:06;98855.03;;;33.59;100.00
72721;BME280;60835;50.974;10.322;2023-06-22T12:15:33;98830.56;;;34.00;100.00
72721;BME280;60835;50.974;10.322;2023-06-22T12:18:00;98827.84;;;32.82;100.00
72721;BME280;60835;50.974;10.322;2023-06-22T12:20:28;98833.53;;;34.04;100.00
72721;BME280;60835;50.974;10.322;2023-06-22T12:22:55;98822.59;;;32.62;100.00
72721;BME280;60835;50.974;10.322;2023-06-22T12:25:24;98820.31;;;33.68;100.00
72721;BME280;60835;50.974;10.322;2023-06-22T12:27:51;98841.38;;;34.15;100.00
72721;BME280;60835;50.974;10.322;2023-06-22T12:30:18;98820.97;;;33.13;100.00
72721;BME280;60835;50.974;10.322;2023-06-22T12:32:45;98825.00;;;33.21;100.00
72721;BME280;60835;50.974;10.322;2023-06-22T12:35:12;98819.97;;;33.51;100.00
72721;BME280;60835;50.974;10.322;2023-06-22T12:37:43;98809.53;;;32.43;100.00
72721;BME280;60835;50.974;10.322;2023-06-22T12:40:10;98798.19;;;32.26;100.00
72721;BME280;60835;50.974;10.322;2023-06-22T12:42:37;98786.19;;;31.14;100.00
72721;BME280;60835;50.974;10.322;2023-06-22T12:45:04;98784.66;;;32.06;100.00
72721;BME280;60835;50.974;10.322;2023-06-22T12:47:31;98773.16;;;32.72;100.00
72721;BME280;60835;50.974;10.322;2023-06-22T12:49:57;98804.75;;;34.84;100.00